sensor_id;sensor_type;location;lat;lon;timestamp;pressure;altitude;pressure_sealevel;temperature;humidity
8697;BME280;4385;48.848;8.924;2022-10-16T00:00:33;97259.56;;;19.94;100.00
8697;BME280;4385;48.848;8.924;2022-10-16T00:02:59;97261.28;;;19.93;100.00
8697;BME280;4385;48.848;8.924;2022-10-16T00:05:25;97263.88;;;19.92;100.00
8697;BME280;4385;48.848;8.924;2022-10-16T00:07:50;97269.00;;;19.92;100.00
8697;BME280;4385;48.848;8.924;2022-10-16T00:10:15;97267.34;;;19.91;100.00
8697;BME280;4385;48.848;8.924;2022-10-16T00:12:41;97263.97;;;19.89;100.00
8697;BME280;4385;48.848;8.924;2022-10-16T00:15:06;97256.31;;;19.89;100.00
8697;BME280;4385;48.848;8.924;2022-10-16T00:17:32;97252.91;;;19.88;100.00
8697;BME280;4385;48.848;8.924;2022-10-16T00:19:57;97263.19;;;19.87;100.00
8697;BME280;4385;48.848;8.924;2022-10-16T00:22:23;97264.06;;;19.86;100.00
8697;BME280;4385;48.848;8.924;2022-10-16T00:24:48;97253.91;;;19.84;100.00
8697;BME280;4385;48.848;8.924;2022-10-16T00:27:13;97243.72;;;19.83;100.00
8697;BME280;4385;48.848;8.924;2022-10-16T00:29:39;97253.09;;;19.82;100.00
8697;BME280;4385;48.848;8.924;2022-10-16T00:32:04;97261.63;;;19.83;100.00
8697;BME280;4385;48.848;8.924;2022-10-16T00:34:29;97265.88;;;19.82;100.00
8697;BME280;4385;48.848;8.924;2022-10-16T00:36:55;97264.22;;;19.81;100.00
8697;BME280;4385;48.848;8.924;2022-10-16T00:39:20;97264.28;;;19.79;100.00
8697;BME280;4385;48.848;8.924;2022-10-16T00:41:46;97256.66;;;19.78;100.00
8697;BME280;4385;48.848;8.924;2022-10-16T00:47:28;97268.63;;;19.76;100.00
8697;BME280;4385;48.848;8.924;2022-10-16T00:49:59;97256.69;;;19.76;100.00
8697;BME280;4385;48.848;8.924;2022-10-16T00:52:25;97267.81;;;19.75;100.00
8697;BME280;4385;48.848;8.924;2022-10-16T00:54:52;97272.94;;;19.75;100.00
8697;BME280;4385;48.848;8.924;2022-10-16T00:57:18;97272.94;;;19.75;100.00
8697;BME280;4385;48.848;8.924;2022-10-16T00:59:44;97272.03;;;19.76;100.00
8697;BME280;4385;48.848;8.924;2022-10-16T01:02:13;97272.94;;;19.75;100.00
8697;BME280;4385;48.848;8.924;2022-10-16T01:04:42;97275.47;;;19.75;100.00
8697;BME280;4385;48.848;8.924;2022-10-16T01:07:27;97266.97;;;19.75;100.00
8697;BME280;4385;48.848;8.924;2022-10-16T01:10:17;97269.56;;;19.73;100.00
8697;BME280;4385;48.848;8.924;2022-10-16T01:15:45;97270.47;;;19.72;100.00
8697;BME280;4385;48.848;8.924;2022-10-16T01:18:25;97267.06;;;19.72;100.00
8697;BME280;4385;48.848;8.924;2022-10-16T01:21:03;97285.00;;;19.70;100.00
8697;BME280;4385;48.848;8.924;2022-10-16T01:23:48;97275.63;;;19.71;100.00
8697;BME280;4385;48.848;8.924;2022-10-16T01:26:44;97277.34;;;19.70;100.00
8697;BME280;4385;48.848;8.924;2022-10-16T01:29:19;97275.66;;;19.69;100.00
8697;BME280;4385;48.848;8.924;2022-10-16T01:31:49;97273.13;;;19.69;100.00
8697;BME280;4385;48.848;8.924;2022-10-16T01:34:38;97276.53;;;19.68;100.00
8697;BME280;4385;48.848;8.924;2022-10-16T01:37:20;97271.41;;;19.68;100.00
8697;BME280;4385;48.848;8.924;2022-10-16T01:39:46;97268.88;;;19.68;100.00
8697;BME280;4385;48.848;8.924;2022-10-16T01:42:20;97270.66;;;19.66;100.00
8697;BME280;4385;48.848;8.924;2022-10-16T01:44:48;97258.69;;;19.66;100.00
8697;BME280;4385;48.848;8.924;2022-10-16T01:47:15;97252.66;;;19.69;100.00
8697;BME280;4385;48.848;8.924;2022-10-16T01:49:43;97250.97;;;19.68;100.00
8697;BME280;4385;48.848;8.924;2022-10-16T01:52:13;97256.97;;;19.67;100.00
8697;BME280;4385;48.848;8.924;2022-10-16T01:54:42;97262.97;;;19.66;100.00
8697;BME280;4385;48.848;8.924;2022-10-16T01:57:10;97264.66;;;19.67;100.00
8697;BME280;4385;48.848;8.924;2022-10-16T01:59:42;97258.63;;;19.68;100.00
8697;BME280;4385;48.848;8.924;2022-10-16T02:02:10;97262.09;;;19.67;100.00
8697;BME280;4385;48.848;8.924;2022-10-16T02:04:40;97260.38;;;19.67;100.00
8697;BME280;4385;48.848;8.924;2022-10-16T02:07:06;97264.66;;;19.67;100.00
8697;BME280;4385;48.848;8.924;2022-10-16T02:09:35;97269.75;;;19.67;100.00
8697;BME280;4385;48.848;8.924;2022-10-16T02:12:08;97261.19;;;19.68;100.00
8697;BME280;4385;48.848;8.924;2022-10-16T02:14:38;97255.31;;;19.66;100.00
8697;BME280;4385;48.848;8.924;2022-10-16T02:17:15;97254.41;;;19.67;100.00
8697;BME280;4385;48.848;8.924;2022-10-16T02:19:41;97259.53;;;19.67;100.00
8697;BME280;4385;48.848;8.924;2022-10-16T02:22:10;97263.81;;;19.66;100.00
8697;BME280;4385;48.848;8.924;2022-10-16T02:24:44;97254.41;;;19.67;100.00
8697;BME280;4385;48.848;8.924;2022-10-16T02:32:34;97265.63;;;19.63;100.00
8697;BME280;4385;48.848;8.924;2022-10-16T02:35:01;97266.50;;;19.62;100.00
8697;BME280;4385;48.848;8.924;2022-10-16T02:37:27;97264.78;;;19.62;100.00
8697;BME280;4385;48.848;8.924;2022-10-16T02:39:54;97267.34;;;19.62;100.00
8697;BME280;4385;48.848;8.924;2022-10-16T02:42:19;97273.31;;;19.63;100.00
8697;BME280;4385;48.848;8.924;2022-10-16T02:44:45;97274.13;;;19.63;100.00
8697;BME280;4385;48.848;8.924;2022-10-16T02:47:10;97274.97;;;19.64;100.00
8697;BME280;4385;48.848;8.924;2022-10-16T02:49:36;97269.91;;;19.62;100.00
8697;BME280;4385;48.848;8.924;2022-10-16T02:52:02;97282.63;;;19.64;100.00
8697;BME280;4385;48.848;8.924;2022-10-16T02:54:27;97288.53;;;19.66;100.00
8697;BME280;4385;48.848;8.924;2022-10-16T02:56:53;97284.25;;;19.66;100.00
8697;BME280;4385;48.848;8.924;2022-10-16T02:59:18;97278.31;;;19.66;100.00
8697;BME280;4385;48.848;8.924;2022-10-16T03:01:43;97280.06;;;19.64;100.00
8697;BME280;4385;48.848;8.924;2022-10-16T03:04:09;97282.69;;;19.62;100.00
8697;BME280;4385;48.848;8.924;2022-10-16T03:06:34;97279.31;;;19.60;100.00
8697;BME280;4385;48.848;8.924;2022-10-16T03:09:00;97280.16;;;19.61;100.00
8697;BME280;4385;48.848;8.924;2022-10-16T03:11:25;97286.22;;;19.58;100.00
8697;BME280;4385;48.848;8.924;2022-10-16T03:13:51;97283.72;;;19.56;100.00
8697;BME280;4385;48.848;8.924;2022-10-16T03:16:16;97284.53;;;19.57;100.00
8697;BME280;4385;48.848;8.924;2022-10-16T03:18:42;97292.28;;;19.54;100.00
8697;BME280;4385;48.848;8.924;2022-10-16T03:21:07;97288.91;;;19.53;100.00
8697;BME280;4385;48.848;8.924;2022-10-16T03:23:32;97290.47;;;19.58;100.00
8697;BME280;4385;48.848;8.924;2022-10-16T03:25:57;97288.81;;;19.56;100.00
8697;BME280;4385;48.848;8.924;2022-10-16T03:28:23;97292.25;;;19.55;100.00
8697;BME280;4385;48.848;8.924;2022-10-16T03:30:49;97288.81;;;19.56;100.00
8697;BME280;4385;48.848;8.924;2022-10-16T03:33:14;97279.47;;;19.55;100.00
8697;BME280;4385;48.848;8.924;2022-10-16T03:35:39;97284.56;;;19.55;100.00
8697;BME280;4385;48.848;8.924;2022-10-16T03:38:04;97291.38;;;19.56;100.00
8697;BME280;4385;48.848;8.924;2022-10-16T03:40:30;97290.56;;;19.54;100.00
8697;BME280;4385;48.848;8.924;2022-10-16T03:42:57;97292.25;;;19.55;100.00
8697;BME280;4385;48.848;8.924;2022-10-16T03:45:23;97297.34;;;19.55;100.00
8697;BME280;4385;48.848;8.924;2022-10-16T03:47:48;97285.47;;;19.54;100.00
8697;BME280;4385;48.848;8.924;2022-10-16T03:50:14;97286.34;;;19.53;100.00
8697;BME280;4385;48.848;8.924;2022-10-16T03:52:39;97282.06;;;19.54;100.00
8697;BME280;4385;48.848;8.924;2022-10-16T03:55:05;97290.56;;;19.54;100.00
8697;BME280;4385;48.848;8.924;2022-10-16T03:57:30;97300.81;;;19.54;100.00
8697;BME280;4385;48.848;8.924;2022-10-16T03:59:56;97292.34;;;19.52;100.00
8697;BME280;4385;48.848;8.924;2022-10-16T04:02:21;97287.22;;;19.52;100.00
8697;BME280;4385;48.848;8.924;2022-10-16T04:04:46;97288.91;;;19.53;100.00
8697;BME280;4385;48.848;8.924;2022-10-16T04:07:11;97286.41;;;19.52;100.00
8697;BME280;4385;48.848;8.924;2022-10-16T04:09:37;97283.81;;;19.53;100.00
8697;BME280;4385;48.848;8.924;2022-10-16T04:12:02;97277.84;;;19.53;100.00
8697;BME280;4385;48.848;8.924;2022-10-16T04:14:28;97282.97;;;19.53;100.00
8697;BME280;4385;48.848;8.924;2022-10-16T04:16:53;97274.50;;;19.51;100.00
8697;BME280;4385;48.848;8.924;2022-10-16T04:19:18;97278.78;;;19.50;100.00
8697;BME280;4385;48.848;8.924;2022-10-16T04:21:44;97278.78;;;19.50;100.00
8697;BME280;4385;48.848;8.924;2022-10-16T04:24:09;97292.41;;;19.49;100.00
8697;BME280;4385;48.848;8.924;2022-10-16T04:26:36;97286.50;;;19.49;100.00
8697;BME280;4385;48.848;8.924;2022-10-16T04:29:01;97288.19;;;19.48;100.00
8697;BME280;4385;48.848;8.924;2022-10-16T04:31:27;97294.22;;;19.47;100.00
8697;BME280;4385;48.848;8.924;2022-10-16T04:33:52;97298.47;;;19.47;100.00
8697;BME280;4385;48.848;8.924;2022-10-16T04:36:17;97296.81;;;19.46;100.00
8697;BME280;4385;48.848;8.924;2022-10-16T04:38:43;97296.81;;;19.46;100.00
8697;BME280;4385;48.848;8.924;2022-10-16T04:41:08;97296.84;;;19.44;100.00
8697;BME280;4385;48.848;8.924;2022-10-16T04:43:33;97303.66;;;19.43;100.00
8697;BME280;4385;48.848;8.924;2022-10-16T04:45:59;97319.84;;;19.44;100.00
8697;BME280;4385;48.848;8.924;2022-10-16T04:48:24;97318.16;;;19.43;100.00
8697;BME280;4385;48.848;8.924;2022-10-16T04:50:49;97318.19;;;19.41;100.00
8697;BME280;4385;48.848;8.924;2022-10-16T04:53:15;97321.41;;;19.48;100.00
8697;BME280;4385;48.848;8.924;2022-10-16T04:55:40;97327.44;;;19.47;100.00
8697;BME280;4385;48.848;8.924;2022-10-16T04:58:06;97329.22;;;19.43;100.00
8697;BME280;4385;48.848;8.924;2022-10-16T05:00:31;97328.38;;;19.43;100.00
8697;BME280;4385;48.848;8.924;2022-10-16T05:02:57;97335.19;;;19.44;100.00
8697;BME280;4385;48.848;8.924;2022-10-16T05:05:24;97328.38;;;19.43;100.00
8697;BME280;4385;48.848;8.924;2022-10-16T05:07:49;97325.00;;;19.42;100.00
8697;BME280;4385;48.848;8.924;2022-10-16T05:10:15;97319.03;;;19.42;100.00
8697;BME280;4385;48.848;8.924;2022-10-16T05:12:41;97316.41;;;19.45;100.00
8697;BME280;4385;48.848;8.924;2022-10-16T05:15:06;97311.38;;;19.42;100.00
8697;BME280;4385;48.848;8.924;2022-10-16T05:17:32;97316.50;;;19.42;100.00
8697;BME280;4385;48.848;8.924;2022-10-16T05:19:57;97317.34;;;19.42;100.00
8697;BME280;4385;48.848;8.924;2022-10-16T05:22:22;97326.72;;;19.42;100.00
8697;BME280;4385;48.848;8.924;2022-10-16T05:24:47;97324.19;;;19.40;100.00
8697;BME280;4385;48.848;8.924;2022-10-16T05:27:13;97321.59;;;19.42;100.00
8697;BME280;4385;48.848;8.924;2022-10-16T05:29:47;97327.47;;;19.46;100.00
8697;BME280;4385;48.848;8.924;2022-10-16T05:32:17;97322.44;;;19.42;100.00
8697;BME280;4385;48.848;8.924;2022-10-16T05:34:42;97325.81;;;19.43;100.00
8697;BME280;4385;48.848;8.924;2022-10-16T05:37:08;97323.25;;;19.43;100.00
8697;BME280;4385;48.848;8.924;2022-10-16T05:39:33;97328.38;;;19.43;100.00
8697;BME280;4385;48.848;8.924;2022-10-16T05:41:59;97334.34;;;19.43;100.00
8697;BME280;4385;48.848;8.924;2022-10-16T05:44:24;97332.66;;;19.42;100.00
8697;BME280;4385;48.848;8.924;2022-10-16T05:46:49;97338.59;;;19.43;100.00
8697;BME280;4385;48.848;8.924;2022-10-16T05:49:15;97350.50;;;19.44;100.00
8697;BME280;4385;48.848;8.924;2022-10-16T05:51:41;97345.41;;;19.44;100.00
8697;BME280;4385;48.848;8.924;2022-10-16T05:54:06;97350.50;;;19.44;100.00
8697;BME280;4385;48.848;8.924;2022-10-16T05:56:32;97350.50;;;19.44;100.00
8697;BME280;4385;48.848;8.924;2022-10-16T05:58:57;97343.72;;;19.43;100.00
8697;BME280;4385;48.848;8.924;2022-10-16T06:01:22;97338.56;;;19.44;100.00
8697;BME280;4385;48.848;8.924;2022-10-16T06:03:52;97341.09;;;19.44;100.00
8697;BME280;4385;48.848;8.924;2022-10-16T06:06:22;97346.00;;;19.52;100.00
8697;BME280;4385;48.848;8.924;2022-10-16T06:08:49;97347.03;;;19.47;100.00
8697;BME280;4385;48.848;8.924;2022-10-16T06:11:17;97351.47;;;19.40;100.00
8697;BME280;4385;48.848;8.924;2022-10-16T06:13:42;97357.47;;;19.39;100.00
8697;BME280;4385;48.848;8.924;2022-10-16T06:16:09;97351.47;;;19.40;100.00
8697;BME280;4385;48.848;8.924;2022-10-16T06:18:35;97350.66;;;19.39;100.00
8697;BME280;4385;48.848;8.924;2022-10-16T06:21:10;97351.47;;;19.40;100.00
8697;BME280;4385;48.848;8.924;2022-10-16T06:23:36;97348.91;;;19.40;100.00
8697;BME280;4385;48.848;8.924;2022-10-16T06:26:24;97355.66;;;19.42;100.00
8697;BME280;4385;48.848;8.924;2022-10-16T06:28:50;97359.50;;;19.58;100.00
8697;BME280;4385;48.848;8.924;2022-10-16T06:31:15;97355.53;;;19.47;100.00
8697;BME280;4385;48.848;8.924;2022-10-16T06:33:41;97364.88;;;19.48;100.00
8697;BME280;4385;48.848;8.924;2022-10-16T06:36:09;97368.91;;;19.55;100.00
8697;BME280;4385;48.848;8.924;2022-10-16T06:38:35;97379.31;;;19.49;100.00
8697;BME280;4385;48.848;8.924;2022-10-16T06:41:00;97379.28;;;19.51;100.00
8697;BME280;4385;48.848;8.924;2022-10-16T06:43:27;97378.44;;;19.50;100.00
8697;BME280;4385;48.848;8.924;2022-10-16T06:45:54;97380.91;;;19.53;100.00
8697;BME280;4385;48.848;8.924;2022-10-16T06:48:20;97390.06;;;19.61;100.00
8697;BME280;4385;48.848;8.924;2022-10-16T06:53:23;97392.59;;;19.62;100.00
8697;BME280;4385;48.848;8.924;2022-10-16T06:55:49;97392.72;;;19.58;100.00
8697;BME280;4385;48.848;8.924;2022-10-16T06:58:14;97394.56;;;19.52;100.00
8697;BME280;4385;48.848;8.924;2022-10-16T07:00:39;97392.97;;;19.48;100.00
8697;BME280;4385;48.848;8.924;2022-10-16T07:03:05;97408.31;;;19.48;100.00
8697;BME280;4385;48.848;8.924;2022-10-16T07:05:30;97413.38;;;19.50;100.00
8697;BME280;4385;48.848;8.924;2022-10-16T07:07:55;97416.78;;;19.50;100.00
8697;BME280;4385;48.848;8.924;2022-10-16T07:10:20;97427.00;;;19.50;100.00
8697;BME280;4385;48.848;8.924;2022-10-16T07:12:49;97430.41;;;19.49;100.00
8697;BME280;4385;48.848;8.924;2022-10-16T07:15:14;97423.66;;;19.48;100.00
8697;BME280;4385;48.848;8.924;2022-10-16T07:17:39;97430.41;;;19.49;100.00
8697;BME280;4385;48.848;8.924;2022-10-16T07:20:05;97434.75;;;19.47;100.00
8697;BME280;4385;48.848;8.924;2022-10-16T07:22:30;97433.06;;;19.46;100.00
8697;BME280;4385;48.848;8.924;2022-10-16T07:24:56;97432.19;;;19.47;100.00
8697;BME280;4385;48.848;8.924;2022-10-16T07:27:21;97445.91;;;19.43;100.00
8697;BME280;4385;48.848;8.924;2022-10-16T07:29:49;97440.72;;;19.46;100.00
8697;BME280;4385;48.848;8.924;2022-10-16T07:32:14;97442.41;;;19.47;100.00
8697;BME280;4385;48.848;8.924;2022-10-16T07:34:40;97440.72;;;19.46;100.00
8697;BME280;4385;48.848;8.924;2022-10-16T07:37:05;97436.47;;;19.47;100.00
8697;BME280;4385;48.848;8.924;2022-10-16T07:39:30;97447.53;;;19.47;100.00
8697;BME280;4385;48.848;8.924;2022-10-16T07:41:55;97449.19;;;19.48;100.00
8697;BME280;4385;48.848;8.924;2022-10-16T07:44:21;97450.09;;;19.47;100.00
8697;BME280;4385;48.848;8.924;2022-10-16T07:46:46;97452.69;;;19.46;100.00
8697;BME280;4385;48.848;8.924;2022-10-16T07:49:11;97465.28;;;19.52;100.00
8697;BME280;4385;48.848;8.924;2022-10-16T07:51:37;97460.22;;;19.50;100.00
8697;BME280;4385;48.848;8.924;2022-10-16T07:54:03;97463.47;;;19.55;100.00
8697;BME280;4385;48.848;8.924;2022-10-16T07:56:30;97462.78;;;19.50;100.00
8697;BME280;4385;48.848;8.924;2022-10-16T07:58:56;97468.75;;;19.49;100.00
8697;BME280;4385;48.848;8.924;2022-10-16T08:01:21;97476.41;;;19.49;100.00
8697;BME280;4385;48.848;8.924;2022-10-16T08:03:49;97473.88;;;19.49;100.00
8697;BME280;4385;48.848;8.924;2022-10-16T08:06:16;97474.69;;;19.51;100.00
8697;BME280;4385;48.848;8.924;2022-10-16T08:08:42;97473.75;;;19.54;100.00
8697;BME280;4385;48.848;8.924;2022-10-16T08:11:07;97466.03;;;19.55;100.00
8697;BME280;4385;48.848;8.924;2022-10-16T08:13:33;97467.72;;;19.56;100.00
8697;BME280;4385;48.848;8.924;2022-10-16T08:15:58;97474.44;;;19.61;100.00
8697;BME280;4385;48.848;8.924;2022-10-16T08:18:24;97488.00;;;19.63;100.00
8697;BME280;4385;48.848;8.924;2022-10-16T08:20:57;97493.84;;;19.66;100.00
8697;BME280;4385;48.848;8.924;2022-10-16T08:23:23;97489.56;;;19.68;100.00
8697;BME280;4385;48.848;8.924;2022-10-16T08:25:48;97505.69;;;19.71;100.00
8697;BME280;4385;48.848;8.924;2022-10-16T08:28:13;97489.47;;;19.72;100.00
8697;BME280;4385;48.848;8.924;2022-10-16T08:30:39;97497.78;;;19.80;100.00
8697;BME280;4385;48.848;8.924;2022-10-16T08:33:04;97501.06;;;19.84;100.00
8697;BME280;4385;48.848;8.924;2022-10-16T08:35:31;97499.31;;;19.86;100.00
8697;BME280;4385;48.848;8.924;2022-10-16T08:37:56;97490.75;;;19.87;100.00
8697;BME280;4385;48.848;8.924;2022-10-16T08:40:25;97509.47;;;19.89;100.00
8697;BME280;4385;48.848;8.924;2022-10-16T08:51:03;97495.78;;;19.90;100.00
8697;BME280;4385;48.848;8.924;2022-10-16T08:53:44;97492.53;;;19.85;100.00
8697;BME280;4385;48.848;8.924;2022-10-16T08:56:11;97497.56;;;19.88;100.00
8697;BME280;4385;48.848;8.924;2022-10-16T08:58:36;97499.22;;;19.89;100.00
8697;BME280;4385;48.848;8.924;2022-10-16T09:01:03;97488.13;;;19.90;100.00
8697;BME280;4385;48.848;8.924;2022-10-16T09:03:57;97489.75;;;19.92;100.00
8697;BME280;4385;48.848;8.924;2022-10-16T09:06:50;97499.00;;;19.97;100.00
8697;BME280;4385;48.848;8.924;2022-10-16T09:13:09;97507.03;;;20.16;100.00
8697;BME280;4385;48.848;8.924;2022-10-16T09:18:32;97524.16;;;20.44;100.00
8697;BME280;4385;48.848;8.924;2022-10-16T09:21:23;97524.72;;;20.52;100.00
8697;BME280;4385;48.848;8.924;2022-10-16T09:23:50;97522.97;;;20.54;100.00
8697;BME280;4385;48.848;8.924;2022-10-16T09:26:16;97515.25;;;20.56;100.00
8697;BME280;4385;48.848;8.924;2022-10-16T09:28:43;97521.94;;;20.60;100.00
8697;BME280;4385;48.848;8.924;2022-10-16T09:31:19;97521.03;;;20.63;100.00
8697;BME280;4385;48.848;8.924;2022-10-16T09:33:50;97522.69;;;20.64;100.00
8697;BME280;4385;48.848;8.924;2022-10-16T09:36:16;97531.28;;;20.63;100.00
8697;BME280;4385;48.848;8.924;2022-10-16T09:38:42;97538.84;;;20.66;100.00
8697;BME280;4385;48.848;8.924;2022-10-16T09:41:19;97541.41;;;20.66;100.00
8697;BME280;4385;48.848;8.924;2022-10-16T09:43:53;97541.38;;;20.67;100.00
8697;BME280;4385;48.848;8.924;2022-10-16T09:46:32;97539.69;;;20.66;100.00
8697;BME280;4385;48.848;8.924;2022-10-16T09:49:00;97548.09;;;20.70;100.00
8697;BME280;4385;48.848;8.924;2022-10-16T09:51:31;97548.97;;;20.71;100.00
8697;BME280;4385;48.848;8.924;2022-10-16T09:54:02;97559.09;;;20.74;100.00
8697;BME280;4385;48.848;8.924;2022-10-16T09:56:37;97559.94;;;20.74;100.00
8697;BME280;4385;48.848;8.924;2022-10-16T09:59:15;97551.38;;;20.75;100.00
8697;BME280;4385;48.848;8.924;2022-10-16T10:01:47;97551.38;;;20.75;100.00
8697;BME280;4385;48.848;8.924;2022-10-16T10:04:14;97546.25;;;20.75;100.00
8697;BME280;4385;48.848;8.924;2022-10-16T10:06:47;97549.59;;;20.77;100.00
8697;BME280;4385;48.848;8.924;2022-10-16T10:09:22;97556.31;;;20.81;100.00
8697;BME280;4385;48.848;8.924;2022-10-16T10:11:58;97560.31;;;20.90;100.00
8697;BME280;4385;48.848;8.924;2022-10-16T10:14:41;97562.75;;;20.95;100.00
8697;BME280;4385;48.848;8.924;2022-10-16T10:17:15;97564.41;;;20.96;100.00
8697;BME280;4385;48.848;8.924;2022-10-16T10:25:21;97568.72;;;20.96;100.00
8697;BME280;4385;48.848;8.924;2022-10-16T10:31:11;97568.75;;;20.94;100.00
8697;BME280;4385;48.848;8.924;2022-10-16T10:34:02;97566.97;;;20.96;100.00
8697;BME280;4385;48.848;8.924;2022-10-16T10:36:34;97570.38;;;20.97;100.00
8697;BME280;4385;48.848;8.924;2022-10-16T10:39:25;97575.38;;;21.01;100.00
8697;BME280;4385;48.848;8.924;2022-10-16T10:42:20;97568.47;;;21.03;100.00
8697;BME280;4385;48.848;8.924;2022-10-16T10:50:20;97567.44;;;21.09;100.00
8697;BME280;4385;48.848;8.924;2022-10-16T10:53:09;97573.47;;;21.08;100.00
8697;BME280;4385;48.848;8.924;2022-10-16T11:01:12;97562.25;;;21.11;100.00
8697;BME280;4385;48.848;8.924;2022-10-16T11:04:04;97557.13;;;21.11;100.00
8697;BME280;4385;48.848;8.924;2022-10-16T11:06:40;97562.22;;;21.12;100.00
8697;BME280;4385;48.848;8.924;2022-10-16T11:09:15;97570.66;;;21.16;100.00
8697;BME280;4385;48.848;8.924;2022-10-16T11:14:38;97575.69;;;21.19;100.00
8697;BME280;4385;48.848;8.924;2022-10-16T11:20:12;97573.13;;;21.19;100.00
8697;BME280;4385;48.848;8.924;2022-10-16T11:22:42;97567.13;;;21.18;100.00
8697;BME280;4385;48.848;8.924;2022-10-16T11:28:09;97558.25;;;21.29;100.00
8697;BME280;4385;48.848;8.924;2022-10-16T11:30:53;97563.09;;;21.38;100.00
8697;BME280;4385;48.848;8.924;2022-10-16T11:34:04;97560.28;;;21.46;100.00
8697;BME280;4385;48.848;8.924;2022-10-16T11:36:45;97565.41;;;21.46;100.00
8697;BME280;4385;48.848;8.924;2022-10-16T11:39:29;97561.22;;;21.43;100.00
8697;BME280;4385;48.848;8.924;2022-10-16T11:42:11;97566.38;;;21.42;100.00
8697;BME280;4385;48.848;8.924;2022-10-16T11:50:02;97566.72;;;21.58;100.00
8697;BME280;4385;48.848;8.924;2022-10-16T11:52:42;97557.31;;;21.59;100.00
8697;BME280;4385;48.848;8.924;2022-10-16T11:55:25;97558.19;;;21.58;100.00
8697;BME280;4385;48.848;8.924;2022-10-16T11:58:30;97560.75;;;21.58;100.00
8697;BME280;4385;48.848;8.924;2022-10-16T12:06:54;97552.28;;;21.55;100.00
8697;BME280;4385;48.848;8.924;2022-10-16T12:09:29;97551.38;;;21.57;100.00
8697;BME280;4385;48.848;8.924;2022-10-16T12:11:56;97559.94;;;21.57;100.00
8697;BME280;4385;48.848;8.924;2022-10-16T12:14:41;97564.09;;;21.60;100.00
8697;BME280;4385;48.848;8.924;2022-10-16T12:17:34;97559.81;;;21.60;100.00
8697;BME280;4385;48.848;8.924;2022-10-16T12:22:48;97555.34;;;21.65;100.00
8697;BME280;4385;48.848;8.924;2022-10-16T12:25:24;97562.94;;;21.68;100.00
8697;BME280;4385;48.848;8.924;2022-10-16T12:27:55;97558.78;;;21.66;100.00
8697;BME280;4385;48.848;8.924;2022-10-16T12:30:24;97557.00;;;21.68;100.00
8697;BME280;4385;48.848;8.924;2022-10-16T12:32:57;97557.00;;;21.68;100.00
8697;BME280;4385;48.848;8.924;2022-10-16T12:35:26;97562.06;;;21.70;100.00
8697;BME280;4385;48.848;8.924;2022-10-16T12:37:53;97563.75;;;21.71;100.00
8697;BME280;4385;48.848;8.924;2022-10-16T12:40:29;97565.34;;;21.73;100.00
8697;BME280;4385;48.848;8.924;2022-10-16T12:42:56;97561.91;;;21.74;100.00
8697;BME280;4385;48.848;8.924;2022-10-16T12:45:32;97566.97;;;21.77;100.00
8697;BME280;4385;48.848;8.924;2022-10-16T12:48:04;97562.66;;;21.78;100.00
8697;BME280;4385;48.848;8.924;2022-10-16T12:50:43;97567.84;;;21.76;100.00
8697;BME280;4385;48.848;8.924;2022-10-16T12:53:28;97568.97;;;21.67;100.00
8697;BME280;4385;48.848;8.924;2022-10-16T12:59:32;97574.56;;;21.53;100.00
8697;BME280;4385;48.848;8.924;2022-10-16T13:02:30;97573.81;;;21.50;100.00
8697;BME280;4385;48.848;8.924;2022-10-16T13:05:23;97573.13;;;21.46;100.00
8697;BME280;4385;48.848;8.924;2022-10-16T13:08:07;97580.91;;;21.43;100.00
8697;BME280;4385;48.848;8.924;2022-10-16T13:20:56;97583.84;;;21.30;100.00
8697;BME280;4385;48.848;8.924;2022-10-16T13:26:17;97580.59;;;21.25;100.00
8697;BME280;4385;48.848;8.924;2022-10-16T13:28:46;97577.25;;;21.23;100.00
8697;BME280;4385;48.848;8.924;2022-10-16T13:31:22;97586.69;;;21.21;100.00
8697;BME280;4385;48.848;8.924;2022-10-16T13:33:57;97585.03;;;21.20;100.00
8697;BME280;4385;48.848;8.924;2022-10-16T13:36:29;97587.69;;;21.17;100.00
8697;BME280;4385;48.848;8.924;2022-10-16T13:41:31;97586.91;;;21.15;100.00
8697;BME280;4385;48.848;8.924;2022-10-16T13:43:57;97590.34;;;21.14;100.00
8697;BME280;4385;48.848;8.924;2022-10-16T13:46:24;97581.03;;;21.11;100.00
8697;BME280;4385;48.848;8.924;2022-10-16T13:49:00;97581.09;;;21.10;100.00
8697;BME280;4385;48.848;8.924;2022-10-16T13:51:26;97586.28;;;21.08;100.00
8697;BME280;4385;48.848;8.924;2022-10-16T13:53:52;97587.97;;;21.08;100.00
8697;BME280;4385;48.848;8.924;2022-10-16T13:56:20;97584.63;;;21.05;100.00
8697;BME280;4385;48.848;8.924;2022-10-16T13:58:46;97582.94;;;21.04;100.00
8697;BME280;4385;48.848;8.924;2022-10-16T14:01:20;97581.28;;;21.03;100.00
8697;BME280;4385;48.848;8.924;2022-10-16T14:03:48;97581.28;;;21.03;100.00
8697;BME280;4385;48.848;8.924;2022-10-16T14:06:20;97586.47;;;21.02;100.00
8697;BME280;4385;48.848;8.924;2022-10-16T14:08:55;97584.72;;;21.02;100.00
8697;BME280;4385;48.848;8.924;2022-10-16T14:11:23;97583.06;;;21.01;100.00
8697;BME280;4385;48.848;8.924;2022-10-16T14:13:50;97582.19;;;21.01;100.00
8697;BME280;4385;48.848;8.924;2022-10-16T14:16:25;97589.94;;;20.99;100.00
8697;BME280;4385;48.848;8.924;2022-10-16T14:18:59;97588.28;;;20.98;100.00
8697;BME280;4385;48.848;8.924;2022-10-16T14:21:26;97589.16;;;20.97;100.00
8697;BME280;4385;48.848;8.924;2022-10-16T14:23:52;97589.25;;;20.94;100.00
8697;BME280;4385;48.848;8.924;2022-10-16T14:26:22;97590.94;;;20.95;100.00
8697;BME280;4385;48.848;8.924;2022-10-16T14:28:48;97595.25;;;20.93;100.00
8697;BME280;4385;48.848;8.924;2022-10-16T14:31:28;97591.88;;;20.92;100.00
8697;BME280;4385;48.848;8.924;2022-10-16T14:33:54;97593.59;;;20.92;100.00
8697;BME280;4385;48.848;8.924;2022-10-16T14:36:20;97589.34;;;20.91;100.00
8697;BME280;4385;48.848;8.924;2022-10-16T14:39:06;97591.09;;;20.89;100.00
8697;BME280;4385;48.848;8.924;2022-10-16T14:41:45;97597.09;;;20.88;100.00
8697;BME280;4385;48.848;8.924;2022-10-16T14:44:11;97597.97;;;20.87;100.00
8697;BME280;4385;48.848;8.924;2022-10-16T14:46:41;97592.03;;;20.86;100.00
8697;BME280;4385;48.848;8.924;2022-10-16T14:51:36;97586.84;;;20.88;100.00
8697;BME280;4385;48.848;8.924;2022-10-16T14:54:03;97587.03;;;20.81;100.00
8697;BME280;4385;48.848;8.924;2022-10-16T14:56:42;97582.78;;;20.80;100.00